sensor_id;sensor_type;location;lat;lon;timestamp;temperature;humidity
33825;DHT22;20127;48.962;8.342;2023-05-07T00:02:16;13.10;99.90
33825;DHT22;20127;48.962;8.342;2023-05-07T00:05:18;13.10;99.90
33825;DHT22;20127;48.962;8.342;2023-05-07T00:08:19;13.00;99.90
33825;DHT22;20127;48.962;8.342;2023-05-07T00:11:22;13.00;99.90
33825;DHT22;20127;48.962;8.342;2023-05-07T00:14:25;13.00;99.90
33825;DHT22;20127;48.962;8.342;2023-05-07T00:17:26;12.90;99.90
33825;DHT22;20127;48.962;8.342;2023-05-07T00:20:28;12.90;99.90
33825;DHT22;20127;48.962;8.342;2023-05-07T00:23:30;12.90;99.90
33825;DHT22;20127;48.962;8.342;2023-05-07T00:26:32;12.90;99.90
33825;DHT22;20127;48.962;8.342;2023-05-07T00:29:35;12.90;99.90
33825;DHT22;20127;48.962;8.342;2023-05-07T00:32:37;12.90;99.90
33825;DHT22;20127;48.962;8.342;2023-05-07T00:35:39;12.80;99.90
33825;DHT22;20127;48.962;8.342;2023-05-07T00:38:40;12.80;99.90
33825;DHT22;20127;48.962;8.342;2023-05-07T00:41:42;12.80;99.90
33825;DHT22;20127;48.962;8.342;2023-05-07T00:44:45;12.70;99.90
33825;DHT22;20127;48.962;8.342;2023-05-07T00:47:47;12.70;99.90
33825;DHT22;20127;48.962;8.342;2023-05-07T00:50:49;12.70;99.90
33825;DHT22;20127;48.962;8.342;2023-05-07T00:53:50;12.70;99.90
33825;DHT22;20127;48.962;8.342;2023-05-07T00:56:53;12.70;99.90
33825;DHT22;20127;48.962;8.342;2023-05-07T00:59:56;12.70;99.90
33825;DHT22;20127;48.962;8.342;2023-05-07T01:02:58;12.60;99.90
33825;DHT22;20127;48.962;8.342;2023-05-07T01:06:00;12.60;99.90
33825;DHT22;20127;48.962;8.342;2023-05-07T01:09:03;12.50;99.90
33825;DHT22;20127;48.962;8.342;2023-05-07T01:12:06;12.60;99.90
33825;DHT22;20127;48.962;8.342;2023-05-07T01:15:10;12.60;99.90
33825;DHT22;20127;48.962;8.342;2023-05-07T01:18:13;12.60;99.90
33825;DHT22;20127;48.962;8.342;2023-05-07T01:21:16;12.60;99.90
33825;DHT22;20127;48.962;8.342;2023-05-07T01:24:20;12.60;99.90
33825;DHT22;20127;48.962;8.342;2023-05-07T01:27:22;12.60;99.90
33825;DHT22;20127;48.962;8.342;2023-05-07T01:30:24;12.60;99.90
33825;DHT22;20127;48.962;8.342;2023-05-07T01:33:26;12.60;99.90
33825;DHT22;20127;48.962;8.342;2023-05-07T01:36:32;12.60;99.90
33825;DHT22;20127;48.962;8.342;2023-05-07T01:39:37;12.60;99.90
33825;DHT22;20127;48.962;8.342;2023-05-07T01:42:41;12.60;99.90
33825;DHT22;20127;48.962;8.342;2023-05-07T01:45:44;12.60;99.90
33825;DHT22;20127;48.962;8.342;2023-05-07T01:48:46;12.60;99.90
33825;DHT22;20127;48.962;8.342;2023-05-07T01:51:49;12.60;99.90
33825;DHT22;20127;48.962;8.342;2023-05-07T01:54:52;12.60;99.90
33825;DHT22;20127;48.962;8.342;2023-05-07T01:57:53;12.60;99.90
33825;DHT22;20127;48.962;8.342;2023-05-07T02:00:55;12.60;99.90
33825;DHT22;20127;48.962;8.342;2023-05-07T02:03:57;12.60;99.90
33825;DHT22;20127;48.962;8.342;2023-05-07T02:06:59;12.50;99.90
33825;DHT22;20127;48.962;8.342;2023-05-07T02:10:02;12.50;99.90
33825;DHT22;20127;48.962;8.342;2023-05-07T02:13:04;12.40;99.90
33825;DHT22;20127;48.962;8.342;2023-05-07T02:16:06;12.50;99.90
33825;DHT22;20127;48.962;8.342;2023-05-07T02:19:08;12.40;99.90
33825;DHT22;20127;48.962;8.342;2023-05-07T02:22:10;12.30;99.90
33825;DHT22;20127;48.962;8.342;2023-05-07T02:25:13;12.20;99.90
33825;DHT22;20127;48.962;8.342;2023-05-07T02:28:14;12.20;99.90
33825;DHT22;20127;48.962;8.342;2023-05-07T02:31:16;12.20;99.90
33825;DHT22;20127;48.962;8.342;2023-05-07T02:34:18;12.20;99.90
33825;DHT22;20127;48.962;8.342;2023-05-07T02:37:20;12.10;99.90
33825;DHT22;20127;48.962;8.342;2023-05-07T02:40:23;12.10;99.90
33825;DHT22;20127;48.962;8.342;2023-05-07T02:43:25;12.00;99.90
33825;DHT22;20127;48.962;8.342;2023-05-07T02:46:27;12.00;99.90
33825;DHT22;20127;48.962;8.342;2023-05-07T02:49:28;12.00;99.90
33825;DHT22;20127;48.962;8.342;2023-05-07T02:52:30;12.00;99.90
33825;DHT22;20127;48.962;8.342;2023-05-07T02:55:33;11.90;99.90
33825;DHT22;20127;48.962;8.342;2023-05-07T02:58:35;11.90;99.90
33825;DHT22;20127;48.962;8.342;2023-05-07T03:01:36;11.80;99.90
33825;DHT22;20127;48.962;8.342;2023-05-07T03:04:39;11.80;99.90
33825;DHT22;20127;48.962;8.342;2023-05-07T03:07:41;11.80;99.90
33825;DHT22;20127;48.962;8.342;2023-05-07T03:10:47;11.70;99.90
33825;DHT22;20127;48.962;8.342;2023-05-07T03:13:48;11.70;99.90
33825;DHT22;20127;48.962;8.342;2023-05-07T03:16:50;11.70;99.90
33825;DHT22;20127;48.962;8.342;2023-05-07T03:19:52;11.60;99.90
33825;DHT22;20127;48.962;8.342;2023-05-07T03:22:54;11.60;99.90
33825;DHT22;20127;48.962;8.342;2023-05-07T03:25:57;11.60;99.90
33825;DHT22;20127;48.962;8.342;2023-05-07T03:28:59;11.60;99.90
33825;DHT22;20127;48.962;8.342;2023-05-07T03:32:00;11.60;99.90
33825;DHT22;20127;48.962;8.342;2023-05-07T03:35:02;11.60;99.90
33825;DHT22;20127;48.962;8.342;2023-05-07T03:38:04;11.60;99.90
33825;DHT22;20127;48.962;8.342;2023-05-07T03:41:07;11.50;99.90
33825;DHT22;20127;48.962;8.342;2023-05-07T03:44:09;11.50;99.90
33825;DHT22;20127;48.962;8.342;2023-05-07T03:47:10;11.50;99.90
33825;DHT22;20127;48.962;8.342;2023-05-07T03:50:13;11.50;99.90
33825;DHT22;20127;48.962;8.342;2023-05-07T03:53:15;11.50;99.90
33825;DHT22;20127;48.962;8.342;2023-05-07T03:56:18;11.40;99.90
33825;DHT22;20127;48.962;8.342;2023-05-07T03:59:20;11.40;99.90
33825;DHT22;20127;48.962;8.342;2023-05-07T04:02:21;11.40;99.90
33825;DHT22;20127;48.962;8.342;2023-05-07T04:05:23;11.40;99.90
33825;DHT22;20127;48.962;8.342;2023-05-07T04:08:25;11.40;99.90
33825;DHT22;20127;48.962;8.342;2023-05-07T04:11:28;11.40;99.90
33825;DHT22;20127;48.962;8.342;2023-05-07T04:14:30;11.40;99.90
33825;DHT22;20127;48.962;8.342;2023-05-07T04:17:32;11.40;99.90
33825;DHT22;20127;48.962;8.342;2023-05-07T04:20:34;11.40;99.90
33825;DHT22;20127;48.962;8.342;2023-05-07T04:23:37;11.50;99.90
33825;DHT22;20127;48.962;8.342;2023-05-07T04:26:40;11.50;99.90
33825;DHT22;20127;48.962;8.342;2023-05-07T04:29:41;11.60;99.90
33825;DHT22;20127;48.962;8.342;2023-05-07T04:32:47;11.60;99.90
33825;DHT22;20127;48.962;8.342;2023-05-07T04:35:49;11.60;99.90
33825;DHT22;20127;48.962;8.342;2023-05-07T04:38:51;11.70;99.90
33825;DHT22;20127;48.962;8.342;2023-05-07T04:41:54;11.70;99.90
33825;DHT22;20127;48.962;8.342;2023-05-07T04:44:56;11.70;99.90
33825;DHT22;20127;48.962;8.342;2023-05-07T04:47:57;11.80;99.90
33825;DHT22;20127;48.962;8.342;2023-05-07T04:50:59;11.90;99.90
33825;DHT22;20127;48.962;8.342;2023-05-07T04:54:01;11.90;99.90
33825;DHT22;20127;48.962;8.342;2023-05-07T04:57:04;12.10;99.90
33825;DHT22;20127;48.962;8.342;2023-05-07T05:00:07;12.20;99.90
33825;DHT22;20127;48.962;8.342;2023-05-07T05:03:10;12.30;99.90
33825;DHT22;20127;48.962;8.342;2023-05-07T05:06:12;12.40;99.90
33825;DHT22;20127;48.962;8.342;2023-05-07T05:09:13;12.50;99.90
33825;DHT22;20127;48.962;8.342;2023-05-07T05:12:17;12.50;99.90
33825;DHT22;20127;48.962;8.342;2023-05-07T05:15:19;12.60;99.90
33825;DHT22;20127;48.962;8.342;2023-05-07T05:18:21;12.70;99.90
33825;DHT22;20127;48.962;8.342;2023-05-07T05:21:22;12.90;99.90
33825;DHT22;20127;48.962;8.342;2023-05-07T05:24:24;13.00;99.90
33825;DHT22;20127;48.962;8.342;2023-05-07T05:27:27;13.10;99.90
33825;DHT22;20127;48.962;8.342;2023-05-07T05:30:30;13.30;99.90
33825;DHT22;20127;48.962;8.342;2023-05-07T05:33:31;13.50;99.90
33825;DHT22;20127;48.962;8.342;2023-05-07T05:36:33;13.70;99.90
33825;DHT22;20127;48.962;8.342;2023-05-07T05:39:35;13.90;99.90
33825;DHT22;20127;48.962;8.342;2023-05-07T05:42:38;14.20;99.90
33825;DHT22;20127;48.962;8.342;2023-05-07T05:45:40;14.60;99.90
33825;DHT22;20127;48.962;8.342;2023-05-07T05:48:41;14.90;99.90
33825;DHT22;20127;48.962;8.342;2023-05-07T05:51:43;15.20;99.90
33825;DHT22;20127;48.962;8.342;2023-05-07T05:54:45;15.70;99.90
33825;DHT22;20127;48.962;8.342;2023-05-07T05:57:48;16.00;99.90
33825;DHT22;20127;48.962;8.342;2023-05-07T06:00:50;16.20;99.90
33825;DHT22;20127;48.962;8.342;2023-05-07T06:03:53;16.30;99.90
33825;DHT22;20127;48.962;8.342;2023-05-07T06:06:55;16.40;99.90
33825;DHT22;20127;48.962;8.342;2023-05-07T06:09:57;16.50;99.90
33825;DHT22;20127;48.962;8.342;2023-05-07T06:13:00;16.50;99.90
33825;DHT22;20127;48.962;8.342;2023-05-07T06:16:01;16.80;99.90
33825;DHT22;20127;48.962;8.342;2023-05-07T06:19:03;17.00;99.90
33825;DHT22;20127;48.962;8.342;2023-05-07T06:22:05;17.30;99.90
33825;DHT22;20127;48.962;8.342;2023-05-07T06:25:07;17.70;99.90
33825;DHT22;20127;48.962;8.342;2023-05-07T06:28:10;18.10;99.90
33825;DHT22;20127;48.962;8.342;2023-05-07T06:31:13;18.30;99.90
33825;DHT22;20127;48.962;8.342;2023-05-07T06:34:15;18.30;99.90
33825;DHT22;20127;48.962;8.342;2023-05-07T06:37:17;18.50;99.90
33825;DHT22;20127;48.962;8.342;2023-05-07T06:40:18;18.80;99.90
33825;DHT22;20127;48.962;8.342;2023-05-07T06:43:21;19.30;99.90
33825;DHT22;20127;48.962;8.342;2023-05-07T06:46:23;19.80;99.90
33825;DHT22;20127;48.962;8.342;2023-05-07T06:49:25;20.10;99.90
33825;DHT22;20127;48.962;8.342;2023-05-07T06:52:26;20.10;99.90
33825;DHT22;20127;48.962;8.342;2023-05-07T06:55:28;20.00;99.90
33825;DHT22;20127;48.962;8.342;2023-05-07T06:58:31;20.00;99.90
33825;DHT22;20127;48.962;8.342;2023-05-07T07:01:33;20.30;99.90
33825;DHT22;20127;48.962;8.342;2023-05-07T07:04:35;21.10;99.90
33825;DHT22;20127;48.962;8.342;2023-05-07T07:07:36;22.00;99.90
33825;DHT22;20127;48.962;8.342;2023-05-07T07:10:38;22.80;99.90
33825;DHT22;20127;48.962;8.342;2023-05-07T07:13:41;23.40;98.60
33825;DHT22;20127;48.962;8.342;2023-05-07T07:16:43;23.70;96.60
33825;DHT22;20127;48.962;8.342;2023-05-07T07:19:47;23.00;95.70
33825;DHT22;20127;48.962;8.342;2023-05-07T07:22:48;22.40;95.90
33825;DHT22;20127;48.962;8.342;2023-05-07T07:25:50;22.10;96.40
33825;DHT22;20127;48.962;8.342;2023-05-07T07:28:53;21.90;96.40
33825;DHT22;20127;48.962;8.342;2023-05-07T07:31:55;22.00;96.50
33825;DHT22;20127;48.962;8.342;2023-05-07T07:34:56;22.20;96.20
33825;DHT22;20127;48.962;8.342;2023-05-07T07:37:58;22.10;95.50
33825;DHT22;20127;48.962;8.342;2023-05-07T07:41:00;21.60;95.80
33825;DHT22;20127;48.962;8.342;2023-05-07T07:44:04;21.30;96.30
33825;DHT22;20127;48.962;8.342;2023-05-07T07:47:07;21.20;96.50
33825;DHT22;20127;48.962;8.342;2023-05-07T07:50:09;21.40;96.40
33825;DHT22;20127;48.962;8.342;2023-05-07T07:53:11;21.50;96.00
33825;DHT22;20127;48.962;8.342;2023-05-07T07:56:13;21.40;95.50
33825;DHT22;20127;48.962;8.342;2023-05-07T07:59:17;21.60;95.60
33825;DHT22;20127;48.962;8.342;2023-05-07T08:02:19;22.10;95.10
33825;DHT22;20127;48.962;8.342;2023-05-07T08:05:21;22.60;94.50
33825;DHT22;20127;48.962;8.342;2023-05-07T08:08:22;23.20;93.70
33825;DHT22;20127;48.962;8.342;2023-05-07T08:11:24;24.20;92.90
33825;DHT22;20127;48.962;8.342;2023-05-07T08:14:27;24.90;91.10
33825;DHT22;20127;48.962;8.342;2023-05-07T08:17:29;25.40;90.00
33825;DHT22;20127;48.962;8.342;2023-05-07T08:20:31;25.50;88.40
33825;DHT22;20127;48.962;8.342;2023-05-07T08:23:33;26.30;86.30
33825;DHT22;20127;48.962;8.342;2023-05-07T08:26:35;26.50;83.70
33825;DHT22;20127;48.962;8.342;2023-05-07T08:29:40;26.30;81.60
33825;DHT22;20127;48.962;8.342;2023-05-07T08:32:42;26.20;81.40
33825;DHT22;20127;48.962;8.342;2023-05-07T08:35:44;26.50;80.60
33825;DHT22;20127;48.962;8.342;2023-05-07T08:38:45;27.10;79.10
33825;DHT22;20127;48.962;8.342;2023-05-07T08:41:48;27.50;77.80
33825;DHT22;20127;48.962;8.342;2023-05-07T08:44:51;28.00;76.30
33825;DHT22;20127;48.962;8.342;2023-05-07T08:47:58;28.20;74.10
33825;DHT22;20127;48.962;8.342;2023-05-07T08:51:01;28.50;72.70
33825;DHT22;20127;48.962;8.342;2023-05-07T08:54:03;28.60;72.30
33825;DHT22;20127;48.962;8.342;2023-05-07T08:57:05;29.00;70.60
33825;DHT22;20127;48.962;8.342;2023-05-07T09:00:09;28.50;69.90
33825;DHT22;20127;48.962;8.342;2023-05-07T09:03:11;27.70;70.30
33825;DHT22;20127;48.962;8.342;2023-05-07T09:06:15;27.10;72.10
33825;DHT22;20127;48.962;8.342;2023-05-07T09:09:17;26.70;72.80
33825;DHT22;20127;48.962;8.342;2023-05-07T09:12:20;26.30;72.90
33825;DHT22;20127;48.962;8.342;2023-05-07T09:15:23;26.00;73.70
33825;DHT22;20127;48.962;8.342;2023-05-07T09:18:25;25.80;74.20
33825;DHT22;20127;48.962;8.342;2023-05-07T09:21:27;25.80;74.70
33825;DHT22;20127;48.962;8.342;2023-05-07T09:24:29;25.70;75.10
33825;DHT22;20127;48.962;8.342;2023-05-07T09:27:34;25.70;74.90
33825;DHT22;20127;48.962;8.342;2023-05-07T09:30:37;25.60;75.10
33825;DHT22;20127;48.962;8.342;2023-05-07T09:33:39;25.50;75.60
33825;DHT22;20127;48.962;8.342;2023-05-07T09:36:41;25.40;75.90
33825;DHT22;20127;48.962;8.342;2023-05-07T09:39:44;25.50;76.00
33825;DHT22;20127;48.962;8.342;2023-05-07T09:42:47;25.50;76.10
33825;DHT22;20127;48.962;8.342;2023-05-07T09:45:51;25.50;75.90
33825;DHT22;20127;48.962;8.342;2023-05-07T09:48:53;25.60;75.70
33825;DHT22;20127;48.962;8.342;2023-05-07T09:52:00;25.80;74.70
33825;DHT22;20127;48.962;8.342;2023-05-07T09:55:03;26.00;74.80
33825;DHT22;20127;48.962;8.342;2023-05-07T09:58:06;26.30;74.60
33825;DHT22;20127;48.962;8.342;2023-05-07T10:01:10;26.40;73.90
33825;DHT22;20127;48.962;8.342;2023-05-07T10:04:14;26.50;73.40
33825;DHT22;20127;48.962;8.342;2023-05-07T10:07:16;26.60;72.60
33825;DHT22;20127;48.962;8.342;2023-05-07T10:10:18;26.60;72.30
33825;DHT22;20127;48.962;8.342;2023-05-07T10:13:21;26.80;71.90
33825;DHT22;20127;48.962;8.342;2023-05-07T10:16:25;26.90;70.80
33825;DHT22;20127;48.962;8.342;2023-05-07T10:19:29;27.10;70.00
33825;DHT22;20127;48.962;8.342;2023-05-07T10:22:33;27.30;68.80
33825;DHT22;20127;48.962;8.342;2023-05-07T10:25:38;27.70;68.10
33825;DHT22;20127;48.962;8.342;2023-05-07T10:28:44;28.00;67.50
33825;DHT22;20127;48.962;8.342;2023-05-07T10:31:58;28.30;67.10
33825;DHT22;20127;48.962;8.342;2023-05-07T10:35:03;28.50;66.80
33825;DHT22;20127;48.962;8.342;2023-05-07T10:38:06;28.40;66.60
33825;DHT22;20127;48.962;8.342;2023-05-07T10:41:09;28.40;66.40
33825;DHT22;20127;48.962;8.342;2023-05-07T10:44:11;28.70;66.50
33825;DHT22;20127;48.962;8.342;2023-05-07T10:47:16;28.90;66.00
33825;DHT22;20127;48.962;8.342;2023-05-07T10:50:22;29.10;65.70
33825;DHT22;20127;48.962;8.342;2023-05-07T10:53:25;29.30;64.50
33825;DHT22;20127;48.962;8.342;2023-05-07T10:56:29;29.60;63.80
33825;DHT22;20127;48.962;8.342;2023-05-07T10:59:35;29.90;63.00
33825;DHT22;20127;48.962;8.342;2023-05-07T11:03:05;30.00;62.00
33825;DHT22;20127;48.962;8.342;2023-05-07T11:06:11;30.30;61.30
33825;DHT22;20127;48.962;8.342;2023-05-07T11:09:13;30.40;60.70
33825;DHT22;20127;48.962;8.342;2023-05-07T11:12:15;30.50;60.60
33825;DHT22;20127;48.962;8.342;2023-05-07T11:15:33;30.60;60.30
33825;DHT22;20127;48.962;8.342;2023-05-07T11:18:47;31.00;59.10
33825;DHT22;20127;48.962;8.342;2023-05-07T11:21:50;31.00;58.50
33825;DHT22;20127;48.962;8.342;2023-05-07T11:24:52;31.00;58.40
33825;DHT22;20127;48.962;8.342;2023-05-07T11:27:54;30.70;58.50
33825;DHT22;20127;48.962;8.342;2023-05-07T11:30:58;30.50;58.50
33825;DHT22;20127;48.962;8.342;2023-05-07T11:34:01;30.50;58.50
33825;DHT22;20127;48.962;8.342;2023-05-07T11:37:03;30.40;58.40
33825;DHT22;20127;48.962;8.342;2023-05-07T11:40:07;30.40;58.10
33825;DHT22;20127;48.962;8.342;2023-05-07T11:43:11;30.40;57.90
33825;DHT22;20127;48.962;8.342;2023-05-07T11:46:12;30.70;57.70
33825;DHT22;20127;48.962;8.342;2023-05-07T11:49:16;30.70;56.90
33825;DHT22;20127;48.962;8.342;2023-05-07T11:52:19;30.60;56.50
33825;DHT22;20127;48.962;8.342;2023-05-07T11:55:21;30.50;56.80
33825;DHT22;20127;48.962;8.342;2023-05-07T11:58:25;30.30;57.20
33825;DHT22;20127;48.962;8.342;2023-05-07T12:01:27;30.10;57.60
33825;DHT22;20127;48.962;8.342;2023-05-07T12:04:31;29.90;58.10
33825;DHT22;20127;48.962;8.342;2023-05-07T12:07:33;29.90;58.00
33825;DHT22;20127;48.962;8.342;2023-05-07T12:10:40;29.80;57.80
33825;DHT22;20127;48.962;8.342;2023-05-07T12:13:42;29.70;58.30
33825;DHT22;20127;48.962;8.342;2023-05-07T12:16:44;29.70;58.70
33825;DHT22;20127;48.962;8.342;2023-05-07T12:19:48;29.80;58.30
33825;DHT22;20127;48.962;8.342;2023-05-07T12:22:50;29.80;58.30
33825;DHT22;20127;48.962;8.342;2023-05-07T12:25:52;29.80;58.30
33825;DHT22;20127;48.962;8.342;2023-05-07T12:28:54;29.60;58.30
33825;DHT22;20127;48.962;8.342;2023-05-07T12:31:56;29.40;58.50
33825;DHT22;20127;48.962;8.342;2023-05-07T12:34:59;29.10;58.70
33825;DHT22;20127;48.962;8.342;2023-05-07T12:38:00;29.10;58.80
33825;DHT22;20127;48.962;8.342;2023-05-07T12:41:05;29.10;59.40
33825;DHT22;20127;48.962;8.342;2023-05-07T12:44:07;29.20;59.40
33825;DHT22;20127;48.962;8.342;2023-05-07T12:47:09;29.20;59.40
33825;DHT22;20127;48.962;8.342;2023-05-07T12:50:12;29.00;59.20
33825;DHT22;20127;48.962;8.342;2023-05-07T12:53:14;28.90;59.40
33825;DHT22;20127;48.962;8.342;2023-05-07T12:56:16;28.60;59.40
33825;DHT22;20127;48.962;8.342;2023-05-07T12:59:18;28.40;59.60
33825;DHT22;20127;48.962;8.342;2023-05-07T13:02:19;28.10;60.40
33825;DHT22;20127;48.962;8.342;2023-05-07T13:05:22;27.90;60.70
33825;DHT22;20127;48.962;8.342;2023-05-07T13:08:26;27.80;60.50
33825;DHT22;20127;48.962;8.342;2023-05-07T13:11:28;27.60;60.70
33825;DHT22;20127;48.962;8.342;2023-05-07T13:14:31;27.50;60.80
33825;DHT22;20127;48.962;8.342;2023-05-07T13:17:33;27.60;60.60
33825;DHT22;20127;48.962;8.342;2023-05-07T13:20:36;27.60;60.00
33825;DHT22;20127;48.962;8.342;2023-05-07T13:23:37;27.60;60.00
33825;DHT22;20127;48.962;8.342;2023-05-07T13:26:39;27.40;59.90
33825;DHT22;20127;48.962;8.342;2023-05-07T13:29:41;27.50;60.30
33825;DHT22;20127;48.962;8.342;2023-05-07T13:32:43;27.80;59.80
33825;DHT22;20127;48.962;8.342;2023-05-07T13:35:47;28.20;59.40
33825;DHT22;20127;48.962;8.342;2023-05-07T13:38:50;28.30;59.10
33825;DHT22;20127;48.962;8.342;2023-05-07T13:41:52;28.00;58.70
33825;DHT22;20127;48.962;8.342;2023-05-07T13:44:54;27.80;58.80
33825;DHT22;20127;48.962;8.342;2023-05-07T13:47:57;27.80;59.20
33825;DHT22;20127;48.962;8.342;2023-05-07T13:51:00;27.90;58.90
33825;DHT22;20127;48.962;8.342;2023-05-07T13:54:02;27.70;59.00
33825;DHT22;20127;48.962;8.342;2023-05-07T13:57:04;27.60;60.00
33825;DHT22;20127;48.962;8.342;2023-05-07T14:00:07;27.60;59.90
33825;DHT22;20127;48.962;8.342;2023-05-07T14:03:09;27.50;61.30
33825;DHT22;20127;48.962;8.342;2023-05-07T14:06:12;27.40;62.10
33825;DHT22;20127;48.962;8.342;2023-05-07T14:09:13;27.10;63.00
33825;DHT22;20127;48.962;8.342;2023-05-07T14:12:15;26.40;63.60
33825;DHT22;20127;48.962;8.342;2023-05-07T14:15:17;26.00;64.70
33825;DHT22;20127;48.962;8.342;2023-05-07T14:18:18;25.70;65.60
33825;DHT22;20127;48.962;8.342;2023-05-07T14:21:21;25.50;65.90
33825;DHT22;20127;48.962;8.342;2023-05-07T14:24:24;25.50;66.70
33825;DHT22;20127;48.962;8.342;2023-05-07T14:27:26;25.50;66.00
33825;DHT22;20127;48.962;8.342;2023-05-07T14:30:27;25.20;64.20
33825;DHT22;20127;48.962;8.342;2023-05-07T14:33:29;25.00;64.00
33825;DHT22;20127;48.962;8.342;2023-05-07T14:36:32;24.80;62.70
33825;DHT22;20127;48.962;8.342;2023-05-07T14:39:34;24.60;62.50
33825;DHT22;20127;48.962;8.342;2023-05-07T14:42:36;24.50;62.10
33825;DHT22;20127;48.962;8.342;2023-05-07T14:45:37;24.30;61.80
33825;DHT22;20127;48.962;8.342;2023-05-07T14:48:39;24.30;62.50
33825;DHT22;20127;48.962;8.342;2023-05-07T14:51:43;24.50;62.80
33825;DHT22;20127;48.962;8.342;2023-05-07T14:54:45;24.30;63.20
33825;DHT22;20127;48.962;8.342;2023-05-07T14:57:47;24.30;63.90
33825;DHT22;20127;48.962;8.342;2023-05-07T15:00:48;24.30;63.90
33825;DHT22;20127;48.962;8.342;2023-05-07T15:03:50;24.30;64.30
33825;DHT22;20127;48.962;8.342;2023-05-07T15:06:53;24.30;64.60
33825;DHT22;20127;48.962;8.342;2023-05-07T15:09:56;24.20;64.80
33825;DHT22;20127;48.962;8.342;2023-05-07T15:12:58;24.20;65.10
33825;DHT22;20127;48.962;8.342;2023-05-07T15:15:59;24.10;65.50
33825;DHT22;20127;48.962;8.342;2023-05-07T15:19:01;24.10;65.70
33825;DHT22;20127;48.962;8.342;2023-05-07T15:22:04;24.00;66.40
33825;DHT22;20127;48.962;8.342;2023-05-07T15:25:07;23.90;66.90
33825;DHT22;20127;48.962;8.342;2023-05-07T15:28:09;23.70;67.40
33825;DHT22;20127;48.962;8.342;2023-05-07T15:31:11;23.70;67.60
33825;DHT22;20127;48.962;8.342;2023-05-07T15:34:12;23.70;67.60
33825;DHT22;20127;48.962;8.342;2023-05-07T15:37:16;23.70;67.60
33825;DHT22;20127;48.962;8.342;2023-05-07T15:40:18;23.70;68.00
33825;DHT22;20127;48.962;8.342;2023-05-07T15:43:20;23.70;68.20
33825;DHT22;20127;48.962;8.342;2023-05-07T15:46:23;23.80;68.70
33825;DHT22;20127;48.962;8.342;2023-05-07T15:49:25;23.90;69.10
33825;DHT22;20127;48.962;8.342;2023-05-07T15:52:28;23.90;69.20
33825;DHT22;20127;48.962;8.342;2023-05-07T15:55:30;23.90;70.50
33825;DHT22;20127;48.962;8.342;2023-05-07T15:58:31;23.80;70.10
33825;DHT22;20127;48.962;8.342;2023-05-07T16:01:33;23.70;70.60
33825;DHT22;20127;48.962;8.342;2023-05-07T16:04:35;23.60;70.90
33825;DHT22;20127;48.962;8.342;2023-05-07T16:07:38;23.40;71.40
33825;DHT22;20127;48.962;8.342;2023-05-07T16:10:40;23.20;72.10
33825;DHT22;20127;48.962;8.342;2023-05-07T16:13:42;23.10;72.30
33825;DHT22;20127;48.962;8.342;2023-05-07T16:16:43;23.10;72.20
33825;DHT22;20127;48.962;8.342;2023-05-07T16:19:45;23.10;72.60
33825;DHT22;20127;48.962;8.342;2023-05-07T16:22:48;23.10;72.70
33825;DHT22;20127;48.962;8.342;2023-05-07T16:25:50;23.10;73.30
33825;DHT22;20127;48.962;8.342;2023-05-07T16:28:51;23.10;73.80
33825;DHT22;20127;48.962;8.342;2023-05-07T16:31:53;23.10;75.00
33825;DHT22;20127;48.962;8.342;2023-05-07T16:34:55;23.10;77.10
33825;DHT22;20127;48.962;8.342;2023-05-07T16:37:58;22.90;76.50
33825;DHT22;20127;48.962;8.342;2023-05-07T16:41:00;22.70;76.60
33825;DHT22;20127;48.962;8.342;2023-05-07T16:44:02;22.50;76.50
33825;DHT22;20127;48.962;8.342;2023-05-07T16:47:04;22.40;76.50
33825;DHT22;20127;48.962;8.342;2023-05-07T16:50:06;22.30;76.70
33825;DHT22;20127;48.962;8.342;2023-05-07T16:53:09;22.30;76.70
33825;DHT22;20127;48.962;8.342;2023-05-07T16:56:11;22.20;76.90
33825;DHT22;20127;48.962;8.342;2023-05-07T16:59:13;22.00;77.50
33825;DHT22;20127;48.962;8.342;2023-05-07T17:02:14;21.70;78.20
33825;DHT22;20127;48.962;8.342;2023-05-07T17:05:16;21.40;80.00
33825;DHT22;20127;48.962;8.342;2023-05-07T17:08:20;21.10;81.70
33825;DHT22;20127;48.962;8.342;2023-05-07T17:11:22;20.80;83.80
33825;DHT22;20127;48.962;8.342;2023-05-07T17:14:24;20.40;85.90
33825;DHT22;20127;48.962;8.342;2023-05-07T17:17:25;20.00;88.20
33825;DHT22;20127;48.962;8.342;2023-05-07T17:20:27;19.80;90.20
33825;DHT22;20127;48.962;8.342;2023-05-07T17:23:30;19.60;91.20
33825;DHT22;20127;48.962;8.342;2023-05-07T17:26:32;19.30;92.00
33825;DHT22;20127;48.962;8.342;2023-05-07T17:29:35;19.00;92.80
33825;DHT22;20127;48.962;8.342;2023-05-07T17:32:37;18.80;93.40
33825;DHT22;20127;48.962;8.342;2023-05-07T17:35:39;18.50;94.30
33825;DHT22;20127;48.962;8.342;2023-05-07T17:38:42;18.40;95.30
33825;DHT22;20127;48.962;8.342;2023-05-07T17:41:43;18.20;96.70
33825;DHT22;20127;48.962;8.342;2023-05-07T17:44:45;17.90;97.70
33825;DHT22;20127;48.962;8.342;2023-05-07T17:47:47;17.60;99.20
33825;DHT22;20127;48.962;8.342;2023-05-07T17:50:48;17.40;99.90
33825;DHT22;20127;48.962;8.342;2023-05-07T17:53:51;17.40;99.90
33825;DHT22;20127;48.962;8.342;2023-05-07T17:56:53;17.20;99.90
33825;DHT22;20127;48.962;8.342;2023-05-07T17:59:55;17.20;99.90
33825;DHT22;20127;48.962;8.342;2023-05-07T18:02:56;17.10;99.90
33825;DHT22;20127;48.962;8.342;2023-05-07T18:05:59;17.00;99.90
33825;DHT22;20127;48.962;8.342;2023-05-07T18:09:02;16.90;99.90
33825;DHT22;20127;48.962;8.342;2023-05-07T18:12:06;16.80;99.90
33825;DHT22;20127;48.962;8.342;2023-05-07T18:15:08;16.70;99.90
33825;DHT22;20127;48.962;8.342;2023-05-07T18:18:10;16.60;99.90
33825;DHT22;20127;48.962;8.342;2023-05-07T18:21:12;16.50;99.90
33825;DHT22;20127;48.962;8.342;2023-05-07T18:24:19;16.50;99.90
33825;DHT22;20127;48.962;8.342;2023-05-07T18:27:21;16.60;99.90
33825;DHT22;20127;48.962;8.342;2023-05-07T18:30:23;16.70;99.90
33825;DHT22;20127;48.962;8.342;2023-05-07T18:33:24;16.70;99.90
33825;DHT22;20127;48.962;8.342;2023-05-07T18:36:26;16.80;99.90
33825;DHT22;20127;48.962;8.342;2023-05-07T18:39:30;16.80;99.90
33825;DHT22;20127;48.962;8.342;2023-05-07T18:42:31;16.80;99.90
33825;DHT22;20127;48.962;8.342;2023-05-07T18:45:33;16.90;99.90
33825;DHT22;20127;48.962;8.342;2023-05-07T18:48:35;16.80;99.90
33825;DHT22;20127;48.962;8.342;2023-05-07T18:51:36;16.70;99.90
33825;DHT22;20127;48.962;8.342;2023-05-07T18:54:40;16.70;99.90
33825;DHT22;20127;48.962;8.342;2023-05-07T18:57:42;16.60;99.90
33825;DHT22;20127;48.962;8.342;2023-05-07T19:00:44;16.50;99.90
33825;DHT22;20127;48.962;8.342;2023-05-07T19:03:46;16.50;99.90
33825;DHT22;20127;48.962;8.342;2023-05-07T19:06:48;16.50;99.90
33825;DHT22;20127;48.962;8.342;2023-05-07T19:09:51;16.40;99.90
33825;DHT22;20127;48.962;8.342;2023-05-07T19:12:53;16.30;99.90